createdAt,value
2023-03-27T00:01:13.287Z,21.06
2023-03-27T00:03:41.491Z,21.06
2023-03-27T00:06:11.421Z,21.36
2023-03-27T00:08:38.903Z,21.03
2023-03-27T00:11:08.258Z,21.29
2023-03-27T00:13:36.637Z,21.21
2023-03-27T00:16:27.712Z,21.24
2023-03-27T00:18:55.573Z,21.24
2023-03-27T00:21:23.126Z,21.32
2023-03-27T00:23:50.561Z,21.07
2023-03-27T00:26:17.968Z,21.38
2023-03-27T00:28:45.160Z,20.87
2023-03-27T00:31:14.259Z,20.99
2023-03-27T00:33:42.512Z,21.27
2023-03-27T00:36:10.348Z,21.25
2023-03-27T00:38:39.878Z,20.83
2023-03-27T00:41:08.463Z,21.13
2023-03-27T00:43:36.808Z,20.86
2023-03-27T00:46:04.303Z,21.03
2023-03-27T00:48:32.943Z,20.68
2023-03-27T00:51:00.360Z,20.79
2023-03-27T00:53:28.854Z,21.10
2023-03-27T00:55:58.778Z,20.80
2023-03-27T00:58:32.218Z,21.05
2023-03-27T01:00:59.636Z,21.16
2023-03-27T01:03:29.876Z,20.95
2023-03-27T01:05:58.136Z,21.24
2023-03-27T01:08:27.363Z,21.31
2023-03-27T01:10:58.132Z,20.94
2023-03-27T01:13:55.423Z,21.06
2023-03-27T01:16:35.601Z,21.06
2023-03-27T01:19:06.086Z,21.30
2023-03-27T01:21:52.144Z,20.80
2023-03-27T01:24:26.720Z,20.67
2023-03-27T01:27:12.598Z,20.90
2023-03-27T01:29:51.267Z,20.64
2023-03-27T01:32:20.387Z,21.23
2023-03-27T01:35:06.309Z,21.06
2023-03-27T01:37:33.799Z,21.00
2023-03-27T01:40:19.827Z,21.03
2023-03-27T01:42:50.333Z,21.20
2023-03-27T01:45:23.784Z,21.32
2023-03-27T01:47:56.833Z,21.11
2023-03-27T01:50:29.945Z,20.87
2023-03-27T01:53:23.539Z,21.04
2023-03-27T01:55:54.406Z,20.97
2023-03-27T01:58:28.235Z,21.12
2023-03-27T02:00:58.997Z,21.05
2023-03-27T02:03:40.241Z,20.72
2023-03-27T02:06:16.565Z,20.79
2023-03-27T02:09:05.386Z,20.87
2023-03-27T02:11:36.596Z,21.02
2023-03-27T02:14:17.448Z,21.26
2023-03-27T02:16:48.798Z,20.95
2023-03-27T02:19:20.816Z,20.82
2023-03-27T02:21:51.121Z,21.03
2023-03-27T02:24:19.013Z,20.35
2023-03-27T02:26:50.612Z,20.82
2023-03-27T02:29:17.987Z,21.35
2023-03-27T02:31:45.630Z,21.05
2023-03-27T02:34:33.981Z,20.88
2023-03-27T02:37:17.616Z,20.67
2023-03-27T02:40:39.851Z,20.69
2023-03-27T02:43:46.003Z,21.07
2023-03-27T02:46:28.401Z,20.90
2023-03-27T02:48:59.835Z,21.16
2023-03-27T02:51:30.259Z,21.24
2023-03-27T02:54:01.244Z,20.74
2023-03-27T02:56:34.970Z,21.30
2023-03-27T02:59:04.734Z,20.92
2023-03-27T03:01:37.489Z,20.89
2023-03-27T03:04:28.566Z,21.08
2023-03-27T03:07:06.526Z,20.94
2023-03-27T03:09:34.626Z,21.05
2023-03-27T03:12:09.042Z,20.91
2023-03-27T03:14:44.241Z,20.96
2023-03-27T03:17:12.679Z,20.76
2023-03-27T03:19:39.932Z,20.83
2023-03-27T03:22:08.610Z,21.45
2023-03-27T03:24:37.619Z,21.66
2023-03-27T03:27:05.871Z,21.41
2023-03-27T03:29:44.354Z,21.24
2023-03-27T03:32:16.953Z,21.56
2023-03-27T03:34:47.213Z,22.08
2023-03-27T03:37:16.013Z,21.03
2023-03-27T03:39:43.207Z,21.90
2023-03-27T03:42:22.795Z,21.72
2023-03-27T03:44:52.713Z,21.19
2023-03-27T03:47:22.022Z,21.70
2023-03-27T03:49:49.936Z,21.23
2023-03-27T03:52:17.410Z,21.30
2023-03-27T03:54:46.740Z,21.00
2023-03-27T03:57:14.453Z,20.89
2023-03-27T03:59:43.153Z,21.01
2023-03-27T04:02:37.240Z,20.77
2023-03-27T04:05:09.755Z,21.77
2023-03-27T04:07:40.219Z,21.42
2023-03-27T04:10:26.687Z,21.45
2023-03-27T04:12:54.477Z,22.44
2023-03-27T04:15:28.497Z,22.03
2023-03-27T04:17:58.941Z,21.55
2023-03-27T04:20:28.975Z,21.52
2023-03-27T04:23:02.324Z,21.72
2023-03-27T04:25:30.729Z,21.46
2023-03-27T04:27:59.088Z,21.20
2023-03-27T04:30:37.221Z,20.82
2023-03-27T04:33:23.220Z,22.12
2023-03-27T04:36:06.429Z,21.23
2023-03-27T04:38:59.828Z,21.25
2023-03-27T04:41:29.824Z,21.71
2023-03-27T04:43:57.566Z,21.41
2023-03-27T04:46:24.821Z,21.40
2023-03-27T04:48:59.210Z,21.29
2023-03-27T04:51:46.984Z,21.46
2023-03-27T04:54:15.250Z,21.82
2023-03-27T04:56:46.609Z,21.74
2023-03-27T04:59:15.732Z,22.27
2023-03-27T05:01:46.972Z,21.82
2023-03-27T05:04:32.118Z,22.58
2023-03-27T05:07:12.337Z,22.08
2023-03-27T05:09:39.855Z,21.36
2023-03-27T05:12:08.825Z,21.37
2023-03-27T05:14:42.414Z,20.88
2023-03-27T05:17:26.011Z,20.89
2023-03-27T05:19:54.401Z,20.75
2023-03-27T05:22:21.847Z,20.84
2023-03-27T05:24:57.006Z,20.50
2023-03-27T05:27:27.965Z,20.62
2023-03-27T05:29:57.814Z,21.27
2023-03-27T05:32:25.219Z,21.66
2023-03-27T05:35:04.366Z,21.46
2023-03-27T05:37:38.621Z,20.54
2023-03-27T05:40:39.494Z,21.57
2023-03-27T05:43:08.356Z,21.37
2023-03-27T05:45:37.293Z,21.33
2023-03-27T05:48:04.817Z,21.56
2023-03-27T05:50:37.459Z,21.08
2023-03-27T05:53:12.156Z,21.12
2023-03-27T05:56:10.602Z,20.45
2023-03-27T05:58:49.084Z,19.52
2023-03-27T06:01:16.382Z,19.83
2023-03-27T06:03:43.713Z,20.54
2023-03-27T06:06:18.083Z,21.11
2023-03-27T06:08:46.548Z,20.39
2023-03-27T06:11:15.369Z,21.94
2023-03-27T06:13:46.758Z,21.20
2023-03-27T06:16:22.336Z,21.60
2023-03-27T06:18:59.090Z,21.72
2023-03-27T06:21:27.470Z,21.12
2023-03-27T06:23:59.378Z,21.92
2023-03-27T06:26:28.432Z,20.74
2023-03-27T06:29:02.002Z,21.19
2023-03-27T06:31:40.170Z,21.03
2023-03-27T06:34:15.184Z,20.97
2023-03-27T06:37:14.860Z,20.87
2023-03-27T06:39:44.242Z,20.54
2023-03-27T06:42:11.829Z,20.09
2023-03-27T06:44:56.124Z,20.63
2023-03-27T06:48:16.875Z,20.35
2023-03-27T06:50:51.101Z,20.52
2023-03-27T06:53:27.474Z,20.77
2023-03-27T06:55:56.081Z,20.50
2023-03-27T06:58:24.706Z,21.25
2023-03-27T07:00:52.239Z,21.23
2023-03-27T07:03:21.505Z,21.07
2023-03-27T07:06:01.326Z,21.69
2023-03-27T07:08:36.748Z,19.57
2023-03-27T07:13:37.412Z,20.44
2023-03-27T07:16:07.704Z,20.03
2023-03-27T07:18:36.250Z,20.62
2023-03-27T07:21:04.174Z,20.14
2023-03-27T07:23:31.678Z,20.38
2023-03-27T07:26:04.347Z,21.04
2023-03-27T07:28:51.901Z,20.63
2023-03-27T07:31:35.172Z,20.48
2023-03-27T07:34:08.873Z,21.13
2023-03-27T07:36:54.794Z,21.12
2023-03-27T07:39:22.996Z,20.87
2023-03-27T07:41:50.378Z,20.59
2023-03-27T07:44:49.955Z,20.23
2023-03-27T07:47:17.687Z,20.32
2023-03-27T07:49:46.196Z,21.72
2023-03-27T07:52:17.027Z,21.41
2023-03-27T07:54:53.788Z,20.63
2023-03-27T07:57:23.617Z,20.50
2023-03-27T07:59:52.682Z,20.35
2023-03-27T08:02:29.806Z,20.44
2023-03-27T08:04:57.230Z,20.08
2023-03-27T08:07:25.957Z,20.42
2023-03-27T08:09:57.707Z,20.09
2023-03-27T08:12:25.358Z,20.47
2023-03-27T08:14:58.576Z,20.70
2023-03-27T08:17:28.643Z,20.66
2023-03-27T08:19:56.715Z,20.92
2023-03-27T08:22:25.640Z,20.45
2023-03-27T08:25:11.595Z,20.34
2023-03-27T08:27:40.609Z,20.31
2023-03-27T08:30:09.377Z,20.10
2023-03-27T08:32:39.932Z,19.99
2023-03-27T08:35:09.966Z,19.85
2023-03-27T08:37:37.209Z,20.43
2023-03-27T08:40:28.407Z,20.42
2023-03-27T08:43:27.354Z,20.65
2023-03-27T08:46:01.994Z,20.71
2023-03-27T08:48:53.721Z,20.28
2023-03-27T08:51:31.632Z,20.34
2023-03-27T08:54:04.454Z,20.22
2023-03-27T08:56:33.119Z,20.43
2023-03-27T08:59:00.823Z,20.95
2023-03-27T09:01:29.595Z,20.54
2023-03-27T09:04:19.970Z,20.03
2023-03-27T09:06:55.918Z,20.09
2023-03-27T09:09:23.373Z,20.45
2023-03-27T09:12:01.142Z,20.70
2023-03-27T09:14:36.359Z,20.17
2023-03-27T09:17:27.312Z,20.43
2023-03-27T09:20:22.088Z,20.42
2023-03-27T09:22:58.052Z,20.88
2023-03-27T09:25:47.475Z,20.67
2023-03-27T09:28:51.992Z,21.17
2023-03-27T09:31:30.196Z,21.13
2023-03-27T09:34:02.056Z,20.60
2023-03-27T09:36:29.506Z,21.19
2023-03-27T09:39:04.514Z,20.57
2023-03-27T09:41:35.166Z,20.40
2023-03-27T09:44:09.866Z,21.34
2023-03-27T09:46:44.031Z,20.84
2023-03-27T09:49:12.810Z,20.85
2023-03-27T09:51:47.552Z,20.89
2023-03-27T09:54:50.386Z,21.00
2023-03-27T09:57:18.245Z,21.19
2023-03-27T09:59:59.795Z,20.61
2023-03-27T10:02:29.094Z,20.54
2023-03-27T10:05:25.257Z,20.52
2023-03-27T10:07:56.001Z,20.25
2023-03-27T10:10:55.260Z,20.95
2023-03-27T10:13:37.583Z,21.66
2023-03-27T10:16:07.877Z,20.90
2023-03-27T10:18:51.080Z,20.79
2023-03-27T10:21:39.895Z,21.14
2023-03-27T10:24:17.424Z,20.84
2023-03-27T10:27:07.452Z,20.98
2023-03-27T10:29:40.442Z,20.75
2023-03-27T10:32:12.478Z,19.80
2023-03-27T10:35:00.336Z,19.89
2023-03-27T10:38:14.386Z,19.26
2023-03-27T10:41:04.197Z,20.64
2023-03-27T10:43:41.272Z,20.98
2023-03-27T10:46:11.744Z,21.72
2023-03-27T10:48:48.968Z,19.47
2023-03-27T10:51:39.481Z,19.20
2023-03-27T10:54:33.646Z,20.87
2023-03-27T10:57:02.803Z,20.57
2023-03-27T10:59:41.614Z,20.79
2023-03-27T11:02:46.157Z,20.60
2023-03-27T11:05:19.636Z,20.52
2023-03-27T11:07:50.268Z,20.69
2023-03-27T11:10:25.029Z,20.32
2023-03-27T11:12:57.644Z,20.16
2023-03-27T11:15:32.871Z,20.58
2023-03-27T11:18:22.296Z,20.20
2023-03-27T11:21:01.593Z,20.06
2023-03-27T11:23:52.230Z,21.10
2023-03-27T11:26:25.309Z,20.45
2023-03-27T11:28:59.626Z,20.80
2023-03-27T11:31:40.626Z,20.11
2023-03-27T11:34:29.432Z,19.73
2023-03-27T11:37:23.846Z,20.34
2023-03-27T11:39:57.111Z,20.37
2023-03-27T11:42:26.673Z,20.26
2023-03-27T11:44:54.628Z,20.93
2023-03-27T11:48:12.791Z,20.67
2023-03-27T11:50:56.693Z,20.24
2023-03-27T11:53:43.906Z,20.29
2023-03-27T11:56:23.771Z,21.35
2023-03-27T11:59:17.145Z,20.88
2023-03-27T12:02:01.171Z,19.49
2023-03-27T12:04:44.031Z,20.66
2023-03-27T12:07:34.108Z,20.13
2023-03-27T12:10:28.250Z,20.10
2023-03-27T12:13:03.066Z,21.29
2023-03-27T12:15:50.475Z,20.32
2023-03-27T12:18:18.345Z,19.79
2023-03-27T12:20:53.658Z,20.97
2023-03-27T12:23:41.966Z,20.19
2023-03-27T12:26:56.501Z,19.84
2023-03-27T12:30:11.420Z,20.64
2023-03-27T12:32:47.519Z,20.49
2023-03-27T12:35:21.837Z,20.97
2023-03-27T12:37:56.693Z,21.01
2023-03-27T12:40:41.260Z,19.95
2023-03-27T12:43:22.109Z,20.13
2023-03-27T12:46:19.537Z,21.23
2023-03-27T12:48:50.115Z,21.18
2023-03-27T12:51:19.965Z,20.34
2023-03-27T12:53:56.486Z,20.25
2023-03-27T12:56:27.381Z,20.28
2023-03-27T12:58:55.319Z,19.99
2023-03-27T13:01:45.383Z,19.92
2023-03-27T13:04:31.495Z,19.13
2023-03-27T13:07:19.731Z,20.05
2023-03-27T13:10:07.171Z,19.81
2023-03-27T13:12:40.408Z,19.28
2023-03-27T13:15:08.637Z,20.25
2023-03-27T13:18:05.357Z,18.99
2023-03-27T13:20:44.871Z,20.03
2023-03-27T13:23:32.987Z,20.23
2023-03-27T13:26:19.213Z,20.10
2023-03-27T13:28:49.693Z,20.67
2023-03-27T13:31:37.504Z,20.22
2023-03-27T13:34:38.583Z,20.19
2023-03-27T13:37:09.409Z,20.85
2023-03-27T13:39:46.111Z,19.38
2023-03-27T13:42:24.655Z,19.55
2023-03-27T13:44:58.769Z,20.82
2023-03-27T13:47:28.346Z,20.44
2023-03-27T13:50:23.392Z,20.43
2023-03-27T13:53:09.714Z,20.15
2023-03-27T13:56:20.055Z,20.58
2023-03-27T13:59:28.118Z,20.25
2023-03-27T14:01:57.127Z,20.13
2023-03-27T14:04:54.186Z,19.74
2023-03-27T14:07:27.793Z,20.81
2023-03-27T14:10:18.898Z,21.25
2023-03-27T14:13:19.358Z,21.29
2023-03-27T14:16:10.779Z,21.16
2023-03-27T14:19:02.113Z,20.78
2023-03-27T14:21:38.520Z,20.33
2023-03-27T14:24:18.770Z,20.38
2023-03-27T14:26:52.620Z,19.88
2023-03-27T14:29:21.387Z,19.86
2023-03-27T14:31:51.403Z,21.08
2023-03-27T14:34:35.228Z,20.00
2023-03-27T14:37:36.274Z,20.80
2023-03-27T14:40:27.348Z,20.09
2023-03-27T14:47:28.972Z,20.30
2023-03-27T14:50:01.680Z,20.04
2023-03-27T14:52:41.459Z,20.38
2023-03-27T14:55:27.018Z,19.64
2023-03-27T14:58:18.600Z,20.92
2023-03-27T15:00:51.168Z,20.14
2023-03-27T15:03:21.918Z,21.04
2023-03-27T15:05:57.579Z,20.31
2023-03-27T15:08:33.809Z,21.49
2023-03-27T15:11:38.479Z,21.33
2023-03-27T15:14:16.020Z,21.14
2023-03-27T15:16:47.515Z,21.02
2023-03-27T15:19:19.622Z,22.25
2023-03-27T15:21:49.402Z,21.09
2023-03-27T15:24:36.861Z,20.58
2023-03-27T15:27:04.795Z,20.35
2023-03-27T15:29:39.298Z,21.35
2023-03-27T15:32:11.290Z,20.58
2023-03-27T15:34:47.494Z,20.32
2023-03-27T15:37:25.108Z,21.12
2023-03-27T15:40:15.607Z,20.82
2023-03-27T15:42:47.519Z,20.75
2023-03-27T15:45:23.023Z,20.09
2023-03-27T15:48:02.985Z,20.04
2023-03-27T15:50:30.502Z,20.97
2023-03-27T15:52:58.804Z,20.46
2023-03-27T15:55:47.830Z,20.98
2023-03-27T15:58:23.610Z,20.38
2023-03-27T16:00:52.800Z,20.75
2023-03-27T16:03:24.101Z,20.48
2023-03-27T16:05:53.137Z,21.09
2023-03-27T16:08:47.879Z,20.81
2023-03-27T16:11:32.124Z,20.73
2023-03-27T16:13:59.495Z,20.58
2023-03-27T16:16:28.165Z,20.27
2023-03-27T16:18:58.791Z,20.59
2023-03-27T16:21:27.720Z,20.22
2023-03-27T16:23:55.447Z,20.26
2023-03-27T16:26:24.932Z,20.87
2023-03-27T16:28:54.229Z,20.40
2023-03-27T16:31:21.549Z,19.86
2023-03-27T16:33:48.849Z,20.03
2023-03-27T16:36:18.668Z,19.74
2023-03-27T16:38:46.671Z,20.00
2023-03-27T16:41:14.737Z,19.94
2023-03-27T16:43:42.605Z,20.23
2023-03-27T16:46:23.593Z,20.82
2023-03-27T16:48:51.925Z,19.75
2023-03-27T16:51:20.067Z,20.97
2023-03-27T16:53:47.398Z,20.38
2023-03-27T16:56:14.640Z,20.28
2023-03-27T16:58:42.993Z,20.84
2023-03-27T17:01:10.524Z,19.79
2023-03-27T17:03:37.972Z,19.74
2023-03-27T17:06:06.513Z,19.63
2023-03-27T17:08:34.286Z,19.52
2023-03-27T17:11:02.903Z,19.80
2023-03-27T17:13:30.148Z,19.18
2023-03-27T17:15:57.709Z,19.92
2023-03-27T17:18:25.689Z,20.09
2023-03-27T17:20:52.982Z,21.00
2023-03-27T17:23:20.233Z,20.26
2023-03-27T17:25:47.444Z,19.58
2023-03-27T17:28:15.041Z,18.71
2023-03-27T17:30:56.677Z,19.61
2023-03-27T17:33:29.222Z,20.45
2023-03-27T17:35:59.520Z,20.84
2023-03-27T17:38:27.593Z,20.78
2023-03-27T17:40:54.774Z,20.57
2023-03-27T17:43:22.189Z,20.32
2023-03-27T17:45:50.138Z,19.79
2023-03-27T17:48:17.431Z,20.27
2023-03-27T17:50:52.074Z,20.60
2023-03-27T17:53:27.423Z,20.52
2023-03-27T17:55:55.246Z,20.22
2023-03-27T17:58:22.831Z,20.24
2023-03-27T18:00:50.357Z,19.82
2023-03-27T18:03:17.700Z,20.64
2023-03-27T18:05:45.470Z,21.25
2023-03-27T18:08:13.807Z,20.03
2023-03-27T18:10:45.538Z,19.67
2023-03-27T18:13:13.179Z,20.64
2023-03-27T18:15:40.909Z,20.37
2023-03-27T18:18:08.564Z,19.35
2023-03-27T18:20:36.179Z,19.47
2023-03-27T18:23:03.475Z,19.30
2023-03-27T18:25:30.892Z,19.27
2023-03-27T18:27:58.197Z,19.14
2023-03-27T18:30:25.440Z,19.92
2023-03-27T18:32:52.852Z,19.77
2023-03-27T18:35:20.737Z,19.50
2023-03-27T18:37:48.136Z,19.33
2023-03-27T18:40:16.731Z,19.24
2023-03-27T18:42:44.165Z,19.32
2023-03-27T18:45:12.718Z,19.88
2023-03-27T18:47:41.590Z,19.50
2023-03-27T18:50:09.448Z,19.59
2023-03-27T18:52:36.783Z,19.85
2023-03-27T18:55:05.307Z,19.34
2023-03-27T18:57:34.368Z,20.04
2023-03-27T19:00:02.057Z,19.44
2023-03-27T19:02:29.508Z,19.60
2023-03-27T19:04:56.824Z,19.41
2023-03-27T19:07:24.208Z,18.59
2023-03-27T19:09:51.486Z,19.40
2023-03-27T19:12:20.750Z,19.03
2023-03-27T19:15:19.427Z,19.80
2023-03-27T19:17:53.495Z,19.24
2023-03-27T19:20:57.074Z,19.29
2023-03-27T19:23:45.318Z,19.27
2023-03-27T19:26:15.515Z,18.92
2023-03-27T19:28:44.265Z,19.96
2023-03-27T19:31:12.602Z,20.82
2023-03-27T19:33:40.383Z,19.25
2023-03-27T19:36:07.966Z,19.64
2023-03-27T19:38:37.341Z,19.41
2023-03-27T19:41:07.949Z,20.09
2023-03-27T19:43:35.455Z,19.42
2023-03-27T19:46:15.011Z,19.63
2023-03-27T19:48:44.234Z,19.40
2023-03-27T19:51:19.657Z,19.47
2023-03-27T19:53:50.690Z,18.57
2023-03-27T19:56:21.236Z,19.06
2023-03-27T19:58:48.573Z,20.24
2023-03-27T20:01:15.878Z,20.03
2023-03-27T20:03:45.207Z,19.85
2023-03-27T20:06:18.956Z,18.92
2023-03-27T20:08:48.243Z,18.28
2023-03-27T20:11:16.705Z,19.20
2023-03-27T20:13:55.335Z,19.72
2023-03-27T20:16:25.115Z,19.00
2023-03-27T20:19:04.590Z,19.03
2023-03-27T20:21:33.946Z,18.86
2023-03-27T20:24:01.206Z,19.22
2023-03-27T20:26:39.057Z,18.87
2023-03-27T20:29:16.276Z,19.90
2023-03-27T20:31:45.504Z,20.14
2023-03-27T20:34:13.008Z,19.63
2023-03-27T20:36:40.236Z,19.64
2023-03-27T20:39:33.558Z,20.04
2023-03-27T20:42:00.942Z,19.21
2023-03-27T20:44:36.845Z,19.18
2023-03-27T20:47:12.151Z,19.04
2023-03-27T20:49:43.722Z,18.67
2023-03-27T20:52:13.071Z,19.21
2023-03-27T20:54:40.689Z,18.93
2023-03-27T20:57:11.377Z,19.76
2023-03-27T20:59:38.944Z,19.52
2023-03-27T21:02:06.643Z,19.68
2023-03-27T21:04:33.992Z,19.59
2023-03-27T21:07:01.213Z,18.87
2023-03-27T21:09:28.587Z,18.88
2023-03-27T21:11:56.182Z,18.99
2023-03-27T21:14:23.561Z,18.88
2023-03-27T21:16:50.978Z,18.48
2023-03-27T21:19:20.779Z,19.61
2023-03-27T21:21:48.188Z,19.04
2023-03-27T21:24:16.012Z,19.58
2023-03-27T21:26:43.544Z,18.98
2023-03-27T21:29:11.548Z,18.83
2023-03-27T21:31:39.428Z,19.26
2023-03-27T21:34:07.049Z,18.60
2023-03-27T21:36:34.912Z,18.96
2023-03-27T21:39:02.181Z,18.97
2023-03-27T21:41:29.517Z,19.04
2023-03-27T21:43:56.702Z,19.11
2023-03-27T21:46:24.078Z,19.23
2023-03-27T21:48:51.435Z,19.14
2023-03-27T21:51:19.041Z,18.71
2023-03-27T21:53:46.321Z,19.14
2023-03-27T21:56:13.758Z,18.88
2023-03-27T21:58:41.084Z,18.99
2023-03-27T22:01:08.504Z,19.08
2023-03-27T22:03:35.854Z,19.08
2023-03-27T22:06:11.536Z,18.81
2023-03-27T22:08:40.649Z,19.21
2023-03-27T22:11:07.932Z,19.09
2023-03-27T22:13:36.321Z,19.27
2023-03-27T22:16:08.144Z,19.00
2023-03-27T22:18:35.483Z,19.26
2023-03-27T22:21:11.373Z,18.75
2023-03-27T22:23:39.572Z,18.95
2023-03-27T22:26:07.073Z,19.02
2023-03-27T22:28:34.390Z,18.91
2023-03-27T22:31:01.701Z,18.93
2023-03-27T22:33:29.027Z,18.76
2023-03-27T22:35:56.286Z,19.06
2023-03-27T22:38:23.672Z,19.28
2023-03-27T22:40:50.837Z,18.94
2023-03-27T22:43:22.909Z,18.77
2023-03-27T22:45:50.965Z,18.97
2023-03-27T22:48:18.733Z,19.01
2023-03-27T22:50:53.469Z,18.89
2023-03-27T22:53:20.732Z,18.76
2023-03-27T22:55:51.364Z,18.78
2023-03-27T22:58:19.109Z,19.24
2023-03-27T23:00:47.595Z,19.21
2023-03-27T23:03:14.890Z,19.06
2023-03-27T23:05:42.701Z,19.44
2023-03-27T23:08:10.647Z,19.04
2023-03-27T23:10:37.843Z,19.04
2023-03-27T23:13:05.175Z,19.17
2023-03-27T23:15:32.387Z,19.03
2023-03-27T23:17:59.808Z,19.28
2023-03-27T23:20:27.372Z,19.23
2023-03-27T23:22:54.968Z,18.92
2023-03-27T23:25:22.194Z,18.43
2023-03-27T23:27:49.582Z,18.51
2023-03-27T23:30:17.195Z,18.87
2023-03-27T23:32:44.432Z,19.12
2023-03-27T23:35:12.219Z,18.68
2023-03-27T23:37:39.672Z,18.86
2023-03-27T23:40:07.265Z,19.02
2023-03-27T23:42:34.493Z,18.70
2023-03-27T23:45:02.050Z,19.32
2023-03-27T23:47:29.375Z,18.86
2023-03-27T23:49:56.570Z,19.37
2023-03-27T23:52:24.124Z,19.56
2023-03-27T23:54:51.326Z,19.43
2023-03-27T23:57:18.761Z,19.43
2023-03-27T23:59:46.214Z,19.06
